Huvudsida
METAR-TAF:

METAR-TAF

Flygplatser :

Ben Gurions internationella flygplats

Tel Aviv / Ben Gurion, Israel

latitud: 32-00N, longitud: 034-54E, höjd: 40 m

Aktuellt väderrapport

Denna rapport gjordes för 19 minuter sedan, klockan 20:20 UTC
Vind 8 kt från nord
Temperatur 24°C
Fuktighet 18%
Tryck 1014 hPa
Sikt 10 km eller mer
Inga moln under 1 500 m eller inga cumulonimbus

METAR: LLBG 112020Z 01008KT CAVOK 24/M02 Q1014 NOSIG RMK REP AT 1930Z MOD TURB 7000FT

Tid: 22:39 (20:39 UTC)

Väderprognos

Denna rapport gjordes för 3 timmar och 40 minuter sedan, klockan 16:59 UTC
Prognos gäller från 11 kl. 18 UTC till 12 kl. 18 UTC
Vind 4 kt från ost
Sikt 10 km eller mer
Inga moln under 1 500 m eller inga cumulonimbus
Sannolikhet 40%
från 11 kl. 23 UTC till 12 kl. 06 UTC
Vind 12 kt från ost/sydost
Blir
från 12 kl. 06 UTC till 12 kl. 08 UTC
Vind 13 kt från sydost

TAF: LLBG 111659Z 1118/1218 08004KT CAVOK PROB40 1123/1206 12012KT BECMG 1206/1208 14013KT TX33/1213Z TN22/1204Z

Aktuella väderrapporter och prognoser från 4000 flygplatser (METAR- och TAF-rapporter).

De tillgängliga stationerna syns som gula och röda prickar på kartan.

För musen över prickarna för att se namnen på stationerna.

Klicka sedan för att få väderrapporter och prognoser.

För att ändra kartan: Klicka på de gröna knapparna med ett svart kors på för att zooma in; den gröna knappen med ett streck på för att zooma ut; eller på de gröna pilarna för angränsande kartor.


METAR-TAF: